createdAt,value
2019-05-23T03:02:58.404Z,17.50
2019-05-23T03:05:27.063Z,19.30
2019-05-23T03:07:56.204Z,17.90
2019-05-23T03:10:26.749Z,19.87
2019-05-23T03:12:55.587Z,19.03
2019-05-23T03:15:25.140Z,19.73
2019-05-23T03:17:55.596Z,19.70
2019-05-23T03:20:24.504Z,19.50
2019-05-23T03:22:58.487Z,19.77
2019-05-23T03:26:08.324Z,19.07
2019-05-23T03:28:40.590Z,19.03
2019-05-23T03:31:28.149Z,19.00
2019-05-23T03:33:44.035Z,17.67
2019-05-23T03:36:13.251Z,19.40
2019-05-23T03:38:42.287Z,17.63
2019-05-23T03:41:10.936Z,18.63
2019-05-23T03:43:42.065Z,18.50
2019-05-23T03:46:13.218Z,18.53
2019-05-23T03:48:42.124Z,18.10
2019-05-23T03:51:12.436Z,18.97
2019-05-23T03:53:42.294Z,20.90
2019-05-23T03:56:11.141Z,22.00
2019-05-23T03:58:40.854Z,21.27
2019-05-23T04:01:11.347Z,21.23
2019-05-23T04:03:42.198Z,20.03
2019-05-23T04:06:10.841Z,19.83
2019-05-23T04:08:40.337Z,23.13
2019-05-23T04:11:09.172Z,18.87
2019-05-23T04:13:38.647Z,21.20
2019-05-23T04:16:07.391Z,19.13
2019-05-23T04:18:35.965Z,20.90
2019-05-23T04:21:04.843Z,16.47
2019-05-23T04:23:33.443Z,18.57
2019-05-23T04:26:02.293Z,16.93
2019-05-23T04:28:30.949Z,18.37
2019-05-23T04:31:00.461Z,15.90
2019-05-23T04:33:29.011Z,15.40
2019-05-23T04:35:57.610Z,15.93
2019-05-23T04:38:26.199Z,16.20
2019-05-23T04:40:54.856Z,14.90
2019-05-23T04:43:23.735Z,15.93
2019-05-23T04:45:52.315Z,15.03
2019-05-23T04:48:20.882Z,16.03
2019-05-23T04:50:49.476Z,14.53
2019-05-23T04:53:18.826Z,15.43
2019-05-23T04:55:47.860Z,13.67
2019-05-23T04:58:17.019Z,14.67
2019-05-23T05:00:45.747Z,15.00
2019-05-23T05:03:17.929Z,16.30
2019-05-23T05:05:45.666Z,15.13
2019-05-23T05:08:15.038Z,15.83
2019-05-23T05:10:44.990Z,15.93
2019-05-23T05:13:13.590Z,16.83
2019-05-23T05:15:42.492Z,16.20
2019-05-23T05:18:11.439Z,19.13
2019-05-23T05:20:40.321Z,18.47
2019-05-23T05:23:08.895Z,20.47
2019-05-23T05:25:37.856Z,21.87
2019-05-23T05:28:06.768Z,20.27
2019-05-23T05:30:35.841Z,20.93
2019-05-23T05:33:04.516Z,22.20
2019-05-23T05:35:35.096Z,21.23
2019-05-23T05:38:03.765Z,21.73
2019-05-23T05:40:33.128Z,21.60
2019-05-23T05:43:01.921Z,23.10
2019-05-23T05:45:31.499Z,21.90
2019-05-23T05:48:00.356Z,21.63
2019-05-23T05:50:29.425Z,21.13
2019-05-23T05:52:58.385Z,20.63
2019-05-23T05:55:27.040Z,22.00
2019-05-23T05:57:55.651Z,21.93
2019-05-23T06:00:43.510Z,21.93
2019-05-23T06:03:12.675Z,20.63
2019-05-23T06:06:00.349Z,20.97
2019-05-23T06:08:30.780Z,21.60
2019-05-23T06:10:59.503Z,20.90
2019-05-23T06:13:28.308Z,20.93
2019-05-23T06:16:00.107Z,23.87
2019-05-23T06:18:31.875Z,23.00
2019-05-23T06:21:02.477Z,25.03
2019-05-23T06:23:31.832Z,22.20
2019-05-23T06:26:00.489Z,22.50
2019-05-23T06:28:29.324Z,23.63
2019-05-23T06:30:58.174Z,23.87
2019-05-23T06:33:26.944Z,23.70
2019-05-23T06:35:55.748Z,24.03
2019-05-23T06:38:24.689Z,24.40
2019-05-23T06:40:54.439Z,24.23
2019-05-23T06:43:23.312Z,22.07
2019-05-23T06:45:51.976Z,24.90
2019-05-23T06:48:20.969Z,24.10
2019-05-23T06:50:49.855Z,22.77
2019-05-23T06:53:18.755Z,21.87
2019-05-23T06:55:47.369Z,20.33
2019-05-23T06:58:16.648Z,20.70
2019-05-23T07:00:45.277Z,20.70
2019-05-23T07:03:13.890Z,18.80
2019-05-23T07:05:42.868Z,20.93
2019-05-23T07:08:11.500Z,18.80
2019-05-23T07:10:40.977Z,18.43
2019-05-23T07:13:09.643Z,18.17
2019-05-23T07:15:38.364Z,18.93
2019-05-23T07:18:07.299Z,17.23
2019-05-23T07:20:35.867Z,17.60
2019-05-23T07:23:07.115Z,16.90
2019-05-23T07:25:35.798Z,14.63
2019-05-23T07:28:04.432Z,12.80
2019-05-23T07:30:33.015Z,12.67
2019-05-23T07:33:01.590Z,12.93
2019-05-23T07:35:30.189Z,14.43
2019-05-23T07:37:58.803Z,13.83
2019-05-23T07:40:27.842Z,13.53
2019-05-23T07:42:56.514Z,12.43
2019-05-23T07:45:30.640Z,12.57
2019-05-23T07:47:59.907Z,11.40
2019-05-23T07:50:28.491Z,9.53
2019-05-23T07:52:58.871Z,10.47
2019-05-23T07:55:37.943Z,10.03
2019-05-23T07:58:07.196Z,9.80
2019-05-23T08:00:39.572Z,9.20
2019-05-23T08:03:08.707Z,8.07
2019-05-23T08:05:37.288Z,6.33
2019-05-23T08:08:05.980Z,6.00
2019-05-23T08:10:35.207Z,6.05
2019-05-23T08:13:03.812Z,5.70
2019-05-23T08:15:32.391Z,5.30
2019-05-23T08:18:00.958Z,4.87
2019-05-23T08:20:29.619Z,4.55
2019-05-23T08:22:58.199Z,3.92
2019-05-23T08:25:27.040Z,3.83
2019-05-23T08:27:55.681Z,3.90
2019-05-23T08:30:25.533Z,4.10
2019-05-23T08:32:54.499Z,4.00
2019-05-23T08:35:23.062Z,4.12
2019-05-23T08:37:52.136Z,3.52
2019-05-23T08:40:22.368Z,3.92
2019-05-23T08:42:51.498Z,4.92
2019-05-23T08:45:20.135Z,4.65
2019-05-23T08:47:48.783Z,4.72
2019-05-23T08:50:18.367Z,4.35
2019-05-23T08:52:46.992Z,4.47
2019-05-23T08:55:20.279Z,3.87
2019-05-23T08:57:48.948Z,4.37
2019-05-23T09:00:17.972Z,4.55
2019-05-23T09:02:48.127Z,4.50
2019-05-23T09:05:17.616Z,4.47
2019-05-23T09:07:46.287Z,4.90
2019-05-23T09:10:15.674Z,4.55
2019-05-23T09:12:44.930Z,4.28
2019-05-23T09:15:14.063Z,4.80
2019-05-23T09:17:52.800Z,4.90
2019-05-23T09:20:14.162Z,4.30
2019-05-23T09:22:42.999Z,4.72
2019-05-23T09:25:11.841Z,4.40
2019-05-23T09:27:40.461Z,4.40
2019-05-23T09:30:09.480Z,4.95
2019-05-23T09:32:38.044Z,4.67
2019-05-23T09:35:20.331Z,4.15
2019-05-23T09:37:37.411Z,5.70
2019-05-23T09:40:06.345Z,4.70
2019-05-23T09:42:34.926Z,4.10
2019-05-23T09:45:03.503Z,4.12
2019-05-23T09:47:32.153Z,4.58
2019-05-23T09:50:00.727Z,4.97
2019-05-23T09:52:30.399Z,4.90
2019-05-23T09:54:59.051Z,4.78
2019-05-23T09:57:28.523Z,4.62
2019-05-23T09:59:57.256Z,4.58
2019-05-23T10:02:27.504Z,4.90
2019-05-23T10:04:57.116Z,4.12
2019-05-23T10:07:26.146Z,5.08
2019-05-23T10:09:54.792Z,4.58
2019-05-23T10:12:23.493Z,4.47
2019-05-23T10:14:52.080Z,5.37
2019-05-23T10:17:20.771Z,4.90
2019-05-23T10:19:49.342Z,5.55
2019-05-23T10:22:17.944Z,4.70
2019-05-23T10:24:46.520Z,5.40
2019-05-23T10:27:16.802Z,5.45
2019-05-23T10:29:45.440Z,5.10
2019-05-23T10:32:14.125Z,4.90
2019-05-23T10:34:42.719Z,4.67
2019-05-23T10:37:14.423Z,4.12
2019-05-23T10:39:46.664Z,5.00
2019-05-23T10:42:15.226Z,4.85
2019-05-23T10:44:44.945Z,4.75
2019-05-23T10:47:14.190Z,4.83
2019-05-23T10:49:42.974Z,4.90
2019-05-23T10:52:11.577Z,4.25
2019-05-23T10:54:40.524Z,4.92
2019-05-23T10:57:09.174Z,3.85
2019-05-23T10:59:37.869Z,4.50
2019-05-23T11:02:07.435Z,4.33
2019-05-23T11:04:46.064Z,4.22
2019-05-23T11:07:49.517Z,4.37
2019-05-23T11:10:18.531Z,4.33
2019-05-23T11:12:47.347Z,4.90
2019-05-23T11:15:16.299Z,5.17
2019-05-23T11:17:45.199Z,4.83
2019-05-23T11:20:13.887Z,5.30
2019-05-23T11:22:42.895Z,5.92
2019-05-23T11:25:13.576Z,4.92
2019-05-23T11:27:42.224Z,5.22
2019-05-23T11:30:14.412Z,5.10
2019-05-23T11:32:43.221Z,4.50
2019-05-23T11:35:15.125Z,4.50
2019-05-23T11:37:43.709Z,4.72
2019-05-23T11:40:12.794Z,4.67
2019-05-23T11:42:43.838Z,4.47
2019-05-23T11:45:12.530Z,4.92
2019-05-23T11:47:41.417Z,5.05
2019-05-23T11:50:10.188Z,5.60
2019-05-23T11:52:39.335Z,5.05
2019-05-23T11:55:08.263Z,4.95
2019-05-23T11:57:38.464Z,5.30
2019-05-23T12:00:09.065Z,5.00
2019-05-23T12:02:41.165Z,4.92
2019-05-23T12:05:13.840Z,4.92
2019-05-23T12:07:42.526Z,4.70
2019-05-23T12:10:11.740Z,4.53
2019-05-23T12:12:40.349Z,4.00
2019-05-23T12:15:11.106Z,4.87
2019-05-23T12:17:39.792Z,4.95
2019-05-23T12:20:08.829Z,4.80
2019-05-23T12:22:37.904Z,4.62
2019-05-23T12:25:21.358Z,4.03
2019-05-23T12:27:37.553Z,4.50
2019-05-23T12:30:07.963Z,4.53
2019-05-23T12:32:36.599Z,4.65
2019-05-23T12:35:11.178Z,3.70
2019-05-23T12:37:36.123Z,3.67
2019-05-23T12:40:05.271Z,3.85
2019-05-23T12:42:34.077Z,5.67
2019-05-23T12:45:03.160Z,4.30
2019-05-23T12:47:44.925Z,3.85
2019-05-23T12:50:16.448Z,4.72
2019-05-23T12:52:45.279Z,5.12
2019-05-23T12:55:13.921Z,4.65
2019-05-23T12:57:42.576Z,3.67
2019-05-23T13:00:17.180Z,5.00
2019-05-23T13:02:46.278Z,3.98
2019-05-23T13:05:15.073Z,5.28
2019-05-23T13:07:44.592Z,3.83
2019-05-23T13:10:14.595Z,3.42
2019-05-23T13:12:43.355Z,4.55
2019-05-23T13:15:12.262Z,4.70
2019-05-23T13:17:41.084Z,4.20
2019-05-23T13:20:09.863Z,4.05
2019-05-23T13:22:38.501Z,3.30
2019-05-23T13:25:07.752Z,3.22
2019-05-23T13:27:36.426Z,3.72
2019-05-23T13:30:05.483Z,3.65
2019-05-23T13:32:34.742Z,3.15
2019-05-23T13:35:03.466Z,3.80
2019-05-23T13:37:32.088Z,3.27
2019-05-23T13:40:00.678Z,3.27
2019-05-23T13:42:29.575Z,3.90
2019-05-23T13:44:58.387Z,3.10
2019-05-23T13:47:26.996Z,3.50
2019-05-23T13:49:55.688Z,3.12
2019-05-23T13:52:24.362Z,3.10
2019-05-23T13:54:52.923Z,2.83
2019-05-23T13:57:21.535Z,3.02
2019-05-23T13:59:50.100Z,3.17
2019-05-23T14:02:19.225Z,3.35
2019-05-23T14:04:48.008Z,3.10
2019-05-23T14:07:17.291Z,2.65
2019-05-23T14:09:46.041Z,3.37
2019-05-23T14:12:22.304Z,3.47
2019-05-23T14:14:45.642Z,3.75
2019-05-23T14:17:25.602Z,3.20
2019-05-23T14:19:54.191Z,2.98
2019-05-23T14:22:22.957Z,2.83
2019-05-23T14:24:51.527Z,3.08
2019-05-23T14:27:38.137Z,2.90
2019-05-23T14:30:14.443Z,3.50
2019-05-23T14:32:48.478Z,3.15
2019-05-23T14:35:19.907Z,3.02
2019-05-23T14:37:50.794Z,3.60
2019-05-23T14:40:19.360Z,3.42
2019-05-23T14:43:02.445Z,3.00
2019-05-23T14:45:41.058Z,3.20
2019-05-23T14:48:32.860Z,3.10
2019-05-23T14:51:09.077Z,3.40
2019-05-23T14:53:38.911Z,3.20
2019-05-23T14:56:08.455Z,4.08
2019-05-23T14:58:37.222Z,3.47
2019-05-23T15:01:07.164Z,3.17
2019-05-23T15:03:36.441Z,2.95
2019-05-23T15:06:05.011Z,3.12
2019-05-23T15:08:49.816Z,3.50
2019-05-23T15:11:04.588Z,2.60
2019-05-23T15:13:33.158Z,3.27
2019-05-23T15:16:01.751Z,3.20
2019-05-23T15:18:30.312Z,3.40
2019-05-23T15:20:58.955Z,3.37
2019-05-23T15:23:27.590Z,3.10
2019-05-23T15:25:56.227Z,3.25
2019-05-23T15:28:24.824Z,3.60
2019-05-23T15:30:53.380Z,3.37
2019-05-23T15:33:22.086Z,2.93
2019-05-23T15:35:50.925Z,3.17
2019-05-23T15:38:19.482Z,3.60
2019-05-23T15:40:48.068Z,3.10
2019-05-23T15:43:16.641Z,2.93
2019-05-23T15:45:45.270Z,3.30
2019-05-23T15:48:13.895Z,3.23
2019-05-23T15:50:49.982Z,3.20
2019-05-23T15:53:49.764Z,3.10
2019-05-23T15:56:43.225Z,2.87
2019-05-23T15:59:20.778Z,2.90
2019-05-23T16:02:02.971Z,2.97
2019-05-23T16:04:31.973Z,3.67
2019-05-23T16:07:00.572Z,2.93
2019-05-23T16:09:31.055Z,2.80
2019-05-23T16:11:59.888Z,3.77
2019-05-23T16:14:28.494Z,2.70
2019-05-23T16:16:57.414Z,3.13
2019-05-23T16:19:26.206Z,2.53
2019-05-23T16:21:54.989Z,3.70
2019-05-23T16:24:31.540Z,3.53
2019-05-23T16:27:01.433Z,3.90
2019-05-23T16:29:31.039Z,3.27
2019-05-23T16:31:59.683Z,3.57
2019-05-23T16:34:29.605Z,3.17
2019-05-23T16:36:58.173Z,3.07
2019-05-23T16:39:26.950Z,2.93
2019-05-23T16:41:55.850Z,3.10
2019-05-23T16:44:25.342Z,3.20
2019-05-23T16:46:54.024Z,2.90
2019-05-23T16:49:22.741Z,3.10
2019-05-23T16:51:51.324Z,3.23
2019-05-23T16:54:22.438Z,2.80
2019-05-23T16:57:01.583Z,3.57
2019-05-23T16:59:43.818Z,3.50
2019-05-23T17:02:34.681Z,3.63
2019-05-23T17:05:16.033Z,3.30
2019-05-23T17:08:05.117Z,3.00
2019-05-23T17:10:39.249Z,2.63
2019-05-23T17:13:32.524Z,3.03
2019-05-23T17:16:07.027Z,3.03
2019-05-23T17:18:56.891Z,3.40
2019-05-23T17:21:39.027Z,3.23
2019-05-23T17:24:20.921Z,3.57
2019-05-23T17:27:03.128Z,3.50
2019-05-23T17:29:41.504Z,3.33
2019-05-23T17:32:12.463Z,3.33
2019-05-23T17:34:41.036Z,3.57
2019-05-23T17:37:10.320Z,3.13
2019-05-23T17:39:39.996Z,2.83
2019-05-23T17:42:09.023Z,3.20
2019-05-23T17:44:37.647Z,3.27
2019-05-23T17:47:06.211Z,3.10
2019-05-23T17:49:35.866Z,3.50
2019-05-23T17:52:04.631Z,3.60
2019-05-23T17:54:33.286Z,3.53
2019-05-23T17:57:01.875Z,3.50
2019-05-23T17:59:30.807Z,2.83
2019-05-23T18:01:59.726Z,2.77
2019-05-23T18:04:28.702Z,2.37
2019-05-23T18:06:57.314Z,2.33
2019-05-23T18:09:26.767Z,2.77
2019-05-23T18:11:55.744Z,2.50
2019-05-23T18:14:24.304Z,2.83
2019-05-23T18:16:52.964Z,2.70
2019-05-23T18:19:21.796Z,2.20
2019-05-23T18:21:51.067Z,1.90
2019-05-23T18:24:20.440Z,2.70
2019-05-23T18:26:49.161Z,2.60
2019-05-23T18:29:18.163Z,2.83
2019-05-23T18:31:47.707Z,2.70
2019-05-23T18:34:16.350Z,2.70
2019-05-23T18:36:44.946Z,2.37
2019-05-23T18:39:16.344Z,3.23
2019-05-23T18:41:45.119Z,2.97
2019-05-23T18:44:14.217Z,2.40
2019-05-23T18:46:46.464Z,2.73
2019-05-23T18:49:15.735Z,2.30
2019-05-23T18:51:44.538Z,2.53
2019-05-23T18:54:13.717Z,2.90
2019-05-23T18:56:42.273Z,2.60
2019-05-23T18:59:11.351Z,3.00
2019-05-23T19:01:40.327Z,2.73
2019-05-23T19:04:08.978Z,2.70
2019-05-23T19:06:37.573Z,2.80
2019-05-23T19:09:10.116Z,3.00
2019-05-23T19:11:38.979Z,3.37
2019-05-23T19:14:08.071Z,2.97
2019-05-23T19:16:37.121Z,3.10
2019-05-23T19:19:05.976Z,2.77
2019-05-23T19:21:35.050Z,2.97
2019-05-23T19:24:04.690Z,3.40
2019-05-23T19:26:33.256Z,3.20
2019-05-23T19:29:02.746Z,3.00
2019-05-23T19:31:31.458Z,3.07
2019-05-23T19:34:00.432Z,3.10
2019-05-23T19:36:29.169Z,3.17
2019-05-23T19:38:57.790Z,3.23
2019-05-23T19:41:36.681Z,3.47
2019-05-23T19:43:57.363Z,3.97
2019-05-23T19:46:25.932Z,3.60
2019-05-23T19:48:55.053Z,3.20
2019-05-23T19:51:23.640Z,3.50
2019-05-23T19:53:53.192Z,3.83
2019-05-23T19:56:21.748Z,3.70
2019-05-23T19:58:50.348Z,3.83
2019-05-23T20:01:20.019Z,4.40
2019-05-23T20:03:49.103Z,4.07
2019-05-23T20:06:17.791Z,4.20
2019-05-23T20:08:47.946Z,4.03
2019-05-23T20:11:16.788Z,4.67
2019-05-23T20:13:45.590Z,4.60
2019-05-23T20:16:14.491Z,4.90
2019-05-23T20:18:43.059Z,4.70
2019-05-23T20:21:11.663Z,4.53
2019-05-23T20:23:40.275Z,4.50
2019-05-23T20:26:09.428Z,4.50
2019-05-23T20:28:40.048Z,4.60
2019-05-23T20:31:09.845Z,5.23
2019-05-23T20:33:38.431Z,4.93
2019-05-23T20:36:13.188Z,5.83
2019-05-23T20:38:42.202Z,5.23
2019-05-23T20:41:10.891Z,5.70
2019-05-23T20:43:39.561Z,5.07
2019-05-23T20:46:08.126Z,5.57
2019-05-23T20:48:37.362Z,5.50
2019-05-23T20:51:05.955Z,5.97
2019-05-23T20:53:34.802Z,5.60
2019-05-23T20:56:03.487Z,5.73
2019-05-23T20:58:32.192Z,6.40
2019-05-23T21:01:11.803Z,6.07
2019-05-23T21:03:40.656Z,5.37
2019-05-23T21:06:09.536Z,5.40
2019-05-23T21:08:38.103Z,5.37
2019-05-23T21:11:06.712Z,5.50
2019-05-23T21:13:35.464Z,5.43
2019-05-23T21:16:04.215Z,6.17
2019-05-23T21:18:32.853Z,6.17
2019-05-23T21:21:01.721Z,5.27
2019-05-23T21:23:30.303Z,6.03
2019-05-23T21:26:05.123Z,6.13
2019-05-23T21:28:33.951Z,6.43
2019-05-23T21:31:02.787Z,7.00
2019-05-23T21:33:31.722Z,7.67
2019-05-23T21:36:00.355Z,8.47
2019-05-23T21:38:29.006Z,7.70
2019-05-23T21:40:57.636Z,7.47
2019-05-23T21:43:26.202Z,8.23
2019-05-23T21:45:55.356Z,8.60
2019-05-23T21:48:23.950Z,8.70
2019-05-23T21:50:52.635Z,8.23
2019-05-23T21:53:21.219Z,7.70
2019-05-23T21:55:49.846Z,8.20
2019-05-23T21:58:18.486Z,8.23
